Latest Coastal Weather Observations for Rowley Shoals

IDW60701

Issued at 4:43 am WST Friday 21 July 2017 (issued every 10 minutes, with the page automatically refreshed every 10 minutes)

About coastal observations | Map of coastal stations | Coastal observations for WA | Marine services | Other Formats
Station Details ID: 200713 Name: ROWLEY SHOALS Lat: -17.52 Lon: 118.95 Height: 0.0 m
Data from the previous 72 hours. | See also: Recent months at Rowley Shoals
Date/Time
WST
Temp
°C
Wind Pressure Rain since
9am
mm
Weather Cloud Vis
km
Sea
Height
m
Swell
Dir  Spd
kts
Gust
kts
hPa Trend Height
m
Period
s
Dir
21/04:30am - W 3 5 1013.0 - - - - - - - - -
21/04:00am - CALM 0 0 1013.1 - - - - - - - - -
21/03:30am - CALM 0 0 1013.1 - - - - - - - - -
21/03:00am - CALM 0 0 1013.1 - - - - - - - - -
21/02:30am - CALM 0 0 1013.4 - - - - - - - - -
21/02:00am - CALM 0 0 1013.6 - - - - - - - - -
21/01:30am - CALM 0 0 1013.8 - - - - - - - - -
21/01:00am - ENE 2 3 1013.9 - - - - - - - - -
21/12:30am - NE 4 4 1014.2 - - - - - - - - -
21/12:00am - E 5 5 1014.1 - - - - - - - - -
 
Date/Time
WST
Temp
°C
Wind Pressure Rain since
9am
mm
Weather Cloud Vis
km
Sea
Height
m
Swell
Dir  Spd
kts
Gust
kts
hPa Trend Height
m
Period
s
Dir
20/11:30pm - ESE 5 6 1013.9 - - - - - - - - -
20/11:00pm - E 5 6 1014.0 - - - - - - - - -
20/10:30pm - E 7 8 1014.0 - - - - - - - - -
20/10:00pm - ESE 7 8 1014.0 - - - - - - - - -
20/09:30pm - ESE 7 9 1014.0 - - - - - - - - -
20/09:00pm - ESE 7 8 1013.9 - - - - - - - - -
20/08:30pm - ESE 7 8 1013.7 - - - - - - - - -
20/08:00pm - ESE 7 8 1013.7 - - - - - - - - -
20/07:30pm - ESE 7 8 1013.3 - - - - - - - - -
20/07:00pm - ESE 7 8 1013.1 - - - - - - - - -
20/06:30pm - ESE 7 9 1012.8 - - - - - - - - -
20/06:00pm - SE 8 9 1012.7 - - - - - - - - -
20/05:30pm - SE 9 11 1012.4 - - - - - - - - -
20/05:00pm - SE 9 11 1012.3 - - - - - - - - -
20/04:30pm - SE 11 13 1012.2 - - - - - - - - -
20/04:00pm - SE 11 13 1012.0 - - - - - - - - -
20/03:30pm - SE 11 13 1011.8 - - - - - - - - -
20/03:00pm - SE 11 13 1011.8 - - - - - - - - -
20/02:30pm - SE 11 12 1011.7 - - - - - - - - -
20/02:00pm - SE 7 8 1011.9 - - - - - - - - -
20/01:30pm - SSE 6 7 1012.5 - - - - - - - - -
20/01:00pm - SSE 4 6 1012.8 - - - - - - - - -
20/12:30pm - SE 3 5 1013.4 - - - - - - - - -
20/12:00pm - SE 4 5 1013.7 - - - - - - - - -
20/11:30am - ESE 4 6 1014.2 - - - - - - - - -
20/11:00am - ESE 6 7 1014.5 - - - - - - - - -
20/10:30am - ESE 6 7 1014.8 - - - - - - - - -
20/10:00am - SE 6 8 1015.0 - - - - - - - - -
20/09:30am - SE 7 8 1014.9 - - - - - - - - -
20/09:00am - ESE 6 7 1014.8 - - - - - - - - -
20/08:30am - SSE 6 8 1014.5 - - - - - - - - -
20/08:00am - SSE 6 8 1014.3 - - - - - - - - -
20/07:30am - SSE 5 5 1013.8 - - - - - - - - -
20/07:00am - S 6 8 1013.7 - - - - - - - - -
20/06:30am - SSE 4 5 1013.3 - - - - - - - - -
20/06:00am - E 4 5 1013.1 - - - - - - - - -
20/05:30am - ESE 4 5 1013.0 - - - - - - - - -
20/05:00am - ESE 4 5 1012.9 - - - - - - - - -
20/04:30am - SE 4 5 1012.7 - - - - - - - - -
20/04:00am - ESE 3 5 1012.7 - - - - - - - - -
20/03:30am - E 3 5 1012.7 - - - - - - - - -
20/03:00am - CALM 0 3 1012.7 - - - - - - - - -
20/02:30am - E 4 5 1012.7 - - - - - - - - -
20/02:00am - E 5 6 1012.8 - - - - - - - - -
20/01:30am - E 5 7 1013.3 - - - - - - - - -
20/01:00am - E 6 7 1013.4 - - - - - - - - -
20/12:30am - E 7 8 1013.8 - - - - - - - - -
20/12:00am - E 7 9 1013.8 - - - - - - - - -
 
Date/Time
WST
Temp
°C
Wind Pressure Rain since
9am
mm
Weather Cloud Vis
km
Sea
Height
m
Swell
Dir  Spd
kts
Gust
kts
hPa Trend Height
m
Period
s
Dir
19/11:30pm - E 8 9 1014.1 - - - - - - - - -
19/11:00pm - ESE 9 10 1014.4 - - - - - - - - -
19/10:30pm - ESE 9 11 1014.6 - - - - - - - - -
19/10:00pm - ESE 10 12 1014.6 - - - - - - - - -
19/09:30pm - ESE 10 11 1014.7 - - - - - - - - -
19/09:00pm - ESE 10 12 1014.7 - - - - - - - - -
19/08:30pm - ESE 10 11 1014.7 - - - - - - - - -
19/08:00pm - ESE 11 12 1014.7 - - - - - - - - -
19/07:30pm - ESE 11 13 1014.4 - - - - - - - - -
19/07:00pm - ESE 9 11 1014.3 - - - - - - - - -
19/06:30pm - ESE 9 10 1014.0 - - - - - - - - -
19/06:00pm - ESE 9 11 1013.8 - - - - - - - - -
19/05:30pm - ESE 10 11 1013.3 - - - - - - - - -
19/05:00pm - ESE 11 12 1013.1 - - - - - - - - -
19/04:30pm - ESE 11 13 1012.8 - - - - - - - - -
19/04:00pm - E 11 14 1012.6 - - - - - - - - -
19/03:30pm - E 11 13 1012.5 - - - - - - - - -
19/03:00pm - E 12 15 1012.6 - - - - - - - - -
19/02:30pm - E 12 14 1012.8 - - - - - - - - -
19/02:00pm - E 14 16 1012.8 - - - - - - - - -
19/01:30pm - E 15 17 1013.2 - - - - - - - - -
19/01:00pm - E 15 17 1013.7 - - - - - - - - -
19/12:30pm - E 15 17 1014.5 - - - - - - - - -
19/12:00pm - E 15 16 1014.8 - - - - - - - - -
19/11:30am - E 14 16 1015.3 - - - - - - - - -
19/11:00am - ESE 13 15 1015.5 - - - - - - - - -
19/10:30am - ESE 14 16 1015.8 - - - - - - - - -
19/10:00am - SE 14 16 1016.0 - - - - - - - - -
19/09:30am - SE 14 16 1016.2 - - - - - - - - -
19/09:00am - SE 13 15 1016.3 - - - - - - - - -
19/08:30am - SSE 13 15 1016.5 - - - - - - - - -
19/08:00am - SSE 11 14 1016.5 - - - - - - - - -
19/07:30am - S 7 9 1016.3 - - - - - - - - -
19/07:00am - S 9 11 1016.0 - - - - - - - - -
19/06:30am - S 8 10 1015.8 - - - - - - - - -
19/06:00am - S 7 9 1015.7 - - - - - - - - -
19/05:30am - S 5 7 1015.7 - - - - - - - - -
19/05:00am - S 4 4 1015.5 - - - - - - - - -
19/04:30am - SSE 1 3 1015.2 - - - - - - - - -
19/04:00am - CALM 0 0 1015.3 - - - - - - - - -
19/03:30am - CALM 0 0 1015.3 - - - - - - - - -
19/03:00am - CALM 0 0 1015.3 - - - - - - - - -
19/02:30am - CALM 0 0 1015.6 - - - - - - - - -
19/02:00am - CALM 0 0 1015.7 - - - - - - - - -
19/01:30am - ESE 3 3 1016.1 - - - - - - - - -
19/01:00am - ESE 4 4 1016.2 - - - - - - - - -
19/12:30am - ESE 4 5 1016.5 - - - - - - - - -
19/12:00am - E 5 6 1016.6 - - - - - - - - -
 
Date/Time
WST
Temp
°C
Wind Pressure Rain since
9am
mm
Weather Cloud Vis
km
Sea
Height
m
Swell
Dir  Spd
kts
Gust
kts
hPa Trend Height
m
Period
s
Dir
18/11:30pm - ESE 6 6 1016.8 - - - - - - - - -
18/11:00pm - SE 6 8 1017.0 - - - - - - - - -
18/10:30pm - ESE 6 7 1017.1 - - - - - - - - -
18/10:00pm - ESE 6 7 1017.1 - - - - - - - - -
18/09:30pm - SE 6 7 1017.2 - - - - - - - - -
18/09:00pm - SE 7 8 1017.1 - - - - - - - - -
18/08:30pm - ESE 7 8 1017.0 - - - - - - - - -
18/08:00pm - ESE 8 9 1016.8 - - - - - - - - -
18/07:30pm - ESE 10 12 1016.4 - - - - - - - - -
18/07:00pm - ESE 12 14 1016.0 - - - - - - - - -
18/06:30pm - SE 11 13 1015.4 - - - - - - - - -
18/06:00pm - SE 12 14 1015.3 - - - - - - - - -
18/05:30pm - SE 11 13 1015.1 - - - - - - - - -
18/05:00pm - SE 11 13 1015.1 - - - - - - - - -
18/04:30pm - SE 11 14 1015.0 - - - - - - - - -
18/04:00pm - SE 11 13 1014.8 - - - - - - - - -
18/03:30pm - SE 10 11 1014.7 - - - - - - - - -
18/03:00pm - SE 10 12 1014.6 - - - - - - - - -
18/02:30pm - SE 10 11 1014.5 - - - - - - - - -
18/02:00pm - SE 10 12 1014.7 - - - - - - - - -
18/01:30pm - SE 11 12 1014.9 - - - - - - - - -
18/01:00pm - SSE 10 11 1015.2 - - - - - - - - -
18/12:30pm - SSE 11 13 1015.8 - - - - - - - - -
18/12:00pm - SSE 12 14 1016.1 - - - - - - - - -
18/11:30am - SSE 13 15 1016.7 - - - - - - - - -
18/11:00am - SE 15 17 1017.1 - - - - - - - - -
18/10:30am - SE 13 16 1017.6 - - - - - - - - -
18/10:00am - SE 14 16 1017.7 - - - - - - - - -
18/09:30am - SE 13 15 1017.8 - - - - - - - - -
18/09:00am - SE 13 15 1017.9 - - - - - - - - -
18/08:30am - SE 13 14 1017.6 - - - - - - - - -
18/08:00am - SE 13 15 1017.5 - - - - - - - - -
18/07:30am - SE 13 15 1016.9 - - - - - - - - -
18/07:00am - SE 10 11 1016.7 - - - - - - - - -
18/06:30am - ESE 7 8 1016.0 - - - - - - - - -
18/06:00am - SE 6 7 1015.7 - - - - - - - - -
18/05:30am - SE 6 7 1015.4 - - - - - - - - -
18/05:00am - SE 6 6 1015.3 - - - - - - - - -

Other Formats:

Comma delimited format used in spreadsheet applications
http://www.bom.gov.au/fwo/IDW60701/IDW60701.94207.axf

JavaScript Object Notation format (JSON) in row-major order
http://www.bom.gov.au/fwo/IDW60701/IDW60701.94207.json